Time;durP1;ratioP1;P1;durP2;ratioP2;P2;SDS_P1;SDS_P2;PMS_P1;PMS_P2;Temp;Humidity;BMP_temperature;BMP_pressure;BME280_temperature;BME280_humidity;BME280_pressure;Samples;Min_cycle;Max_cycle;Signal;HPM_P1;HPM_P2
2022/09/26 00:00:09;;;;;;;20.43;19.10;;;;;;;;;;5055536;28;20933;-78
2022/09/26 00:02:36;;;;;;;20.70;19.30;;;;;;;;;;5054886;28;20451;-78
2022/09/26 00:05:04;;;;;;;20.43;19.33;;;;;;;;;;5055176;28;20450;-78
2022/09/26 00:07:31;;;;;;;20.97;19.63;;;;;;;;;;5055457;28;20464;-78
2022/09/26 00:10:00;;;;;;;20.00;18.43;;;;;;;;;;5055420;28;20433;-78
2022/09/26 00:12:27;;;;;;;19.80;18.60;;;;;;;;;;5054588;28;20455;-78
2022/09/26 00:14:54;;;;;;;19.93;18.63;;;;;;;;;;5055180;28;20751;-78
2022/09/26 00:17:22;;;;;;;19.37;18.27;;;;;;;;;;5055323;28;20451;-78
2022/09/26 00:19:49;;;;;;;19.57;18.23;;;;;;;;;;5055004;28;20434;-78
2022/09/26 00:22:16;;;;;;;19.40;18.43;;;;;;;;;;5054283;28;20445;-78
2022/09/26 00:24:44;;;;;;;19.93;18.63;;;;;;;;;;5054845;28;20494;-78
2022/09/26 00:27:13;;;;;;;20.20;18.90;;;;;;;;;;5055017;28;20978;-78
2022/09/26 00:29:40;;;;;;;20.90;19.60;;;;;;;;;;5053887;28;20490;-78
2022/09/26 00:32:08;;;;;;;21.63;20.33;;;;;;;;;;5054517;28;20842;-78
2022/09/26 00:34:35;;;;;;;20.80;19.60;;;;;;;;;;5054925;28;20442;-78
2022/09/26 00:37:03;;;;;;;20.77;19.37;;;;;;;;;;5054867;28;20812;-79
2022/09/26 00:39:31;;;;;;;20.50;19.40;;;;;;;;;;5054888;28;20450;-78
2022/09/26 00:41:58;;;;;;;21.23;19.83;;;;;;;;;;5053958;28;20424;-78
2022/09/26 00:44:38;;;;;;;21.00;19.70;;;;;;;;;;5054258;28;20433;-78
2022/09/26 00:47:07;;;;;;;20.57;19.43;;;;;;;;;;5054242;28;20903;-78
2022/09/26 00:49:36;;;;;;;21.10;20.00;;;;;;;;;;5054588;28;20432;-78
2022/09/26 00:52:06;;;;;;;21.10;19.77;;;;;;;;;;5053553;28;20475;-78
2022/09/26 00:54:35;;;;;;;20.57;19.30;;;;;;;;;;5055415;28;20457;-78
2022/09/26 00:57:07;;;;;;;20.53;18.90;;;;;;;;;;5054620;28;20429;-78
2022/09/26 00:59:35;;;;;;;21.87;20.10;;;;;;;;;;5054628;28;20417;-78
2022/09/26 01:02:05;;;;;;;20.07;18.80;;;;;;;;;;5053793;28;20431;-78
2022/09/26 01:04:34;;;;;;;20.00;18.80;;;;;;;;;;5054321;28;20424;-78
2022/09/26 01:07:02;;;;;;;21.50;20.10;;;;;;;;;;5054248;28;20474;-78
2022/09/26 01:09:29;;;;;;;21.47;19.67;;;;;;;;;;5054238;28;20421;-78
2022/09/26 01:11:58;;;;;;;21.43;19.97;;;;;;;;;;5053419;28;20460;-78
2022/09/26 01:14:26;;;;;;;20.73;19.37;;;;;;;;;;5053884;28;20454;-78
2022/09/26 01:16:53;;;;;;;21.70;20.30;;;;;;;;;;5053730;28;20405;-78
2022/09/26 01:19:25;;;;;;;21.27;19.70;;;;;;;;;;5053834;28;20412;-78
2022/09/26 01:22:01;;;;;;;21.03;19.83;;;;;;;;;;5053652;28;20438;-78
2022/09/26 01:24:39;;;;;;;22.13;20.57;;;;;;;;;;5054101;28;20447;-78
2022/09/26 01:27:21;;;;;;;21.27;19.97;;;;;;;;;;5053655;28;20413;-78
2022/09/26 01:30:05;;;;;;;22.20;20.60;;;;;;;;;;5020996;28;20420;-78
2022/09/26 01:32:51;;;;;;;21.23;19.90;;;;;;;;;;5053484;28;20469;-78
2022/09/26 01:35:26;;;;;;;20.53;19.23;;;;;;;;;;5053861;28;20423;-78
2022/09/26 01:37:59;;;;;;;20.93;19.53;;;;;;;;;;5053844;28;20407;-78
2022/09/26 01:40:30;;;;;;;21.37;19.90;;;;;;;;;;5053689;28;20531;-78
2022/09/26 01:43:04;;;;;;;19.93;18.83;;;;;;;;;;5052623;28;20564;-78
2022/09/26 01:45:37;;;;;;;20.00;18.80;;;;;;;;;;5053754;28;20457;-78
2022/09/26 01:48:07;;;;;;;20.33;19.03;;;;;;;;;;5053761;28;20448;-78
2022/09/26 01:50:36;;;;;;;21.50;20.00;;;;;;;;;;5053432;28;20454;-78
2022/09/26 01:53:06;;;;;;;20.77;19.50;;;;;;;;;;5052784;28;20941;-78
2022/09/26 01:55:37;;;;;;;21.30;20.00;;;;;;;;;;5053402;28;20453;-78
2022/09/26 01:58:08;;;;;;;19.83;18.73;;;;;;;;;;5053761;28;20405;-78
2022/09/26 02:00:38;;;;;;;21.07;19.77;;;;;;;;;;5053718;28;20433;-78
2022/09/26 02:03:07;;;;;;;20.67;19.47;;;;;;;;;;5052993;28;20481;-78
2022/09/26 02:05:36;;;;;;;20.30;18.90;;;;;;;;;;5053680;28;20463;-78
2022/09/26 02:08:05;;;;;;;20.43;19.03;;;;;;;;;;5053239;28;20496;-78
2022/09/26 02:10:35;;;;;;;21.50;19.97;;;;;;;;;;5053660;28;20442;-78
2022/09/26 02:13:08;;;;;;;19.93;18.73;;;;;;;;;;5052753;28;20949;-78
2022/09/26 02:15:37;;;;;;;20.93;19.60;;;;;;;;;;5053236;28;20470;-78
2022/09/26 02:18:11;;;;;;;23.23;21.30;;;;;;;;;;5053345;28;20469;-78
2022/09/26 02:20:39;;;;;;;19.80;18.73;;;;;;;;;;5053444;28;20448;-78
2022/09/26 02:23:07;;;;;;;22.07;20.00;;;;;;;;;;5052824;28;20481;-78
2022/09/26 02:25:36;;;;;;;20.30;19.20;;;;;;;;;;5053314;28;20446;-79
2022/09/26 02:28:04;;;;;;;20.80;19.30;;;;;;;;;;5053396;28;20489;-78
2022/09/26 02:30:31;;;;;;;21.10;19.80;;;;;;;;;;5053091;28;20449;-78
2022/09/26 02:32:59;;;;;;;21.87;20.37;;;;;;;;;;5052017;28;20485;-78
2022/09/26 02:38:12;;;;;;;20.50;19.20;;;;;;;;;;5053035;28;20388;-78
2022/09/26 02:40:41;;;;;;;20.63;19.17;;;;;;;;;;5052935;28;20966;-78
2022/09/26 02:43:20;;;;;;;20.50;19.20;;;;;;;;;;5052455;28;20480;-78
2022/09/26 02:45:50;;;;;;;19.90;18.60;;;;;;;;;;5052748;28;20435;-78
2022/09/26 02:48:23;;;;;;;20.37;18.73;;;;;;;;;;5053142;28;20466;-78
2022/09/26 02:50:59;;;;;;;19.90;18.70;;;;;;;;;;5053120;28;20771;-79
2022/09/26 02:53:33;;;;;;;20.10;18.70;;;;;;;;;;5055858;28;20505;-78
2022/09/26 02:56:04;;;;;;;19.87;18.67;;;;;;;;;;5056829;28;20505;-78
2022/09/26 02:58:35;;;;;;;20.60;19.03;;;;;;;;;;5056490;28;20448;-78
2022/09/26 03:01:08;;;;;;;20.10;19.00;;;;;;;;;;5056093;28;20958;-78
2022/09/26 03:03:39;;;;;;;20.37;19.03;;;;;;;;;;5056583;28;20453;-78
2022/09/26 03:06:10;;;;;;;20.47;19.03;;;;;;;;;;5056543;28;20431;-78
2022/09/26 03:08:40;;;;;;;20.50;19.23;;;;;;;;;;5056232;28;20444;-78
2022/09/26 03:11:09;;;;;;;21.63;20.10;;;;;;;;;;5056014;28;20447;-78
2022/09/26 03:13:39;;;;;;;20.60;19.37;;;;;;;;;;5056577;28;20478;-79
2022/09/26 03:16:07;;;;;;;20.37;19.17;;;;;;;;;;5056436;28;20443;-79
2022/09/26 03:18:37;;;;;;;20.20;18.97;;;;;;;;;;5056522;28;20425;-78
2022/09/26 03:21:04;;;;;;;22.63;20.80;;;;;;;;;;5055821;28;20429;-78
2022/09/26 03:23:33;;;;;;;20.73;19.50;;;;;;;;;;5056184;28;20448;-78
2022/09/26 03:26:02;;;;;;;20.40;19.10;;;;;;;;;;5056312;28;20436;-78
2022/09/26 03:28:29;;;;;;;20.10;18.90;;;;;;;;;;5056018;28;20482;-78
2022/09/26 03:30:56;;;;;;;21.13;19.50;;;;;;;;;;5055553;28;20446;-78
2022/09/26 03:33:24;;;;;;;20.23;18.93;;;;;;;;;;5055635;28;20477;-78
2022/09/26 03:35:52;;;;;;;21.27;19.63;;;;;;;;;;5055952;28;20451;-78
2022/09/26 03:38:19;;;;;;;20.23;18.93;;;;;;;;;;5056137;28;20834;-78
2022/09/26 03:40:47;;;;;;;20.03;18.80;;;;;;;;;;5055893;28;20456;-78
2022/09/26 03:43:15;;;;;;;19.73;18.63;;;;;;;;;;5055351;28;20489;-77
2022/09/26 03:45:42;;;;;;;19.90;18.80;;;;;;;;;;5055285;28;20956;-77
2022/09/26 03:48:10;;;;;;;20.00;18.70;;;;;;;;;;5055666;28;20843;-78
2022/09/26 03:50:37;;;;;;;20.67;19.40;;;;;;;;;;5055457;28;20439;-78
2022/09/26 03:53:05;;;;;;;20.50;18.90;;;;;;;;;;5054928;28;20994;-79
2022/09/26 03:55:33;;;;;;;19.43;18.37;;;;;;;;;;5055584;28;20453;-78
2022/09/26 03:58:02;;;;;;;20.33;19.10;;;;;;;;;;5055329;28;20441;-78
2022/09/26 04:00:30;;;;;;;20.50;19.20;;;;;;;;;;5055147;28;20435;-78
2022/09/26 04:03:01;;;;;;;21.73;20.30;;;;;;;;;;5054817;28;20473;-78
2022/09/26 04:05:29;;;;;;;21.37;19.60;;;;;;;;;;5055492;28;20508;-78
2022/09/26 04:07:57;;;;;;;19.97;18.47;;;;;;;;;;5055252;28;20543;-78
2022/09/26 04:10:24;;;;;;;20.73;19.13;;;;;;;;;;5055405;28;20452;-78
2022/09/26 04:12:51;;;;;;;20.80;19.60;;;;;;;;;;5054823;28;20456;-78
2022/09/26 04:15:20;;;;;;;20.10;19.00;;;;;;;;;;5054965;28;20452;-78
2022/09/26 04:17:48;;;;;;;20.67;19.37;;;;;;;;;;5055169;28;20815;-78
2022/09/26 04:20:15;;;;;;;21.80;20.10;;;;;;;;;;5055123;28;20428;-78
2022/09/26 04:22:43;;;;;;;21.07;19.70;;;;;;;;;;5054360;28;20845;-78
2022/09/26 04:25:10;;;;;;;20.43;19.20;;;;;;;;;;5055094;28;20537;-78
2022/09/26 04:27:37;;;;;;;21.33;20.10;;;;;;;;;;5055068;28;20450;-78
2022/09/26 04:30:06;;;;;;;21.27;19.87;;;;;;;;;;5054863;28;20486;-79
2022/09/26 04:32:34;;;;;;;21.20;19.90;;;;;;;;;;5054115;28;20448;-78
2022/09/26 04:35:02;;;;;;;20.77;19.57;;;;;;;;;;5054799;28;20787;-78
2022/09/26 04:37:30;;;;;;;22.30;20.90;;;;;;;;;;5054789;28;20453;-77
2022/09/26 04:39:57;;;;;;;21.90;20.53;;;;;;;;;;5054424;28;20450;-78
2022/09/26 04:42:25;;;;;;;21.20;19.90;;;;;;;;;;5053407;28;20897;-78
2022/09/26 04:44:52;;;;;;;22.67;21.07;;;;;;;;;;5054413;28;20462;-78
2022/09/26 04:47:19;;;;;;;21.53;20.23;;;;;;;;;;5054539;28;20449;-78
2022/09/26 04:49:48;;;;;;;22.07;20.77;;;;;;;;;;5054246;28;20485;-78
2022/09/26 04:52:15;;;;;;;21.47;19.63;;;;;;;;;;5054051;28;20448;-78
2022/09/26 04:54:43;;;;;;;21.37;19.90;;;;;;;;;;5054512;28;20453;-78
2022/09/26 04:57:12;;;;;;;21.47;20.27;;;;;;;;;;5054395;28;20477;-78
2022/09/26 04:59:39;;;;;;;22.97;21.17;;;;;;;;;;5054110;28;20931;-78
2022/09/26 05:02:07;;;;;;;22.20;20.73;;;;;;;;;;5053421;28;20474;-78
2022/09/26 05:04:35;;;;;;;21.50;20.10;;;;;;;;;;5054389;28;20413;-78
2022/09/26 05:07:03;;;;;;;21.90;20.40;;;;;;;;;;5053918;28;20451;-78
2022/09/26 05:09:31;;;;;;;22.57;21.10;;;;;;;;;;5053884;28;20488;-78
2022/09/26 05:11:58;;;;;;;21.80;20.27;;;;;;;;;;5053239;28;20447;-78
2022/09/26 05:14:26;;;;;;;21.30;19.80;;;;;;;;;;5053742;28;20541;-77
2022/09/26 05:16:53;;;;;;;20.80;19.40;;;;;;;;;;5053709;28;20473;-78
2022/09/26 05:19:20;;;;;;;22.57;20.87;;;;;;;;;;5053740;28;20969;-77
2022/09/26 05:21:47;;;;;;;22.40;20.77;;;;;;;;;;5053420;28;20453;-78
2022/09/26 05:27:01;;;;;;;22.73;21.23;;;;;;;;;;5053814;28;20456;-76
2022/09/26 05:29:28;;;;;;;21.67;20.37;;;;;;;;;;5053520;28;20483;-76
2022/09/26 05:31:56;;;;;;;23.00;21.53;;;;;;;;;;5053239;28;20826;-76
2022/09/26 05:34:23;;;;;;;23.10;21.37;;;;;;;;;;5053894;28;20451;-76
2022/09/26 05:36:51;;;;;;;22.20;20.80;;;;;;;;;;5053462;28;20874;-76
2022/09/26 05:42:05;;;;;;;22.37;20.97;;;;;;;;;;5053173;28;20540;-77
2022/09/26 05:44:33;;;;;;;23.10;21.60;;;;;;;;;;5053530;28;20480;-76
2022/09/26 05:47:01;;;;;;;23.37;21.90;;;;;;;;;;5053368;28;20528;-76
2022/09/26 05:49:28;;;;;;;22.53;21.03;;;;;;;;;;5053222;28;20968;-76
2022/09/26 05:51:56;;;;;;;23.43;21.77;;;;;;;;;;5053143;28;20483;-76
2022/09/26 05:54:24;;;;;;;22.17;20.77;;;;;;;;;;5053716;28;20524;-76
2022/09/26 05:56:52;;;;;;;22.70;20.60;;;;;;;;;;5053309;28;20950;-76
2022/09/26 05:59:19;;;;;;;22.83;21.23;;;;;;;;;;5053354;28;20442;-76
2022/09/26 06:01:46;;;;;;;22.17;20.63;;;;;;;;;;5052076;28;20474;-76
2022/09/26 06:04:14;;;;;;;22.87;21.27;;;;;;;;;;5053765;28;20853;-79
2022/09/26 06:06:43;;;;;;;24.07;22.27;;;;;;;;;;5055392;28;20458;-75
2022/09/26 06:09:10;;;;;;;23.10;21.53;;;;;;;;;;5054098;28;20495;-76
2022/09/26 06:11:39;;;;;;;22.57;20.80;;;;;;;;;;5052663;28;20447;-76
2022/09/26 06:14:08;;;;;;;23.30;21.60;;;;;;;;;;5053070;28;20479;-76
2022/09/26 06:16:36;;;;;;;23.20;21.43;;;;;;;;;;5053424;28;20442;-77
2022/09/26 06:19:04;;;;;;;24.80;23.10;;;;;;;;;;5053336;28;20476;-76
2022/09/26 06:21:32;;;;;;;23.10;21.40;;;;;;;;;;5052532;28;20421;-76
2022/09/26 06:24:00;;;;;;;24.40;22.50;;;;;;;;;;5053397;28;20496;-77
2022/09/26 06:26:28;;;;;;;24.00;22.40;;;;;;;;;;5053105;28;20442;-77
2022/09/26 06:28:58;;;;;;;22.80;21.27;;;;;;;;;;5057159;28;20482;-76
2022/09/26 06:31:26;;;;;;;24.80;22.90;;;;;;;;;;5056048;28;20983;-77
2022/09/26 06:33:54;;;;;;;25.90;23.77;;;;;;;;;;5056816;28;20549;-77
2022/09/26 06:36:21;;;;;;;25.70;24.03;;;;;;;;;;5056764;28;20424;-76
2022/09/26 06:38:49;;;;;;;26.53;24.23;;;;;;;;;;5056794;28;20486;-76
2022/09/26 06:41:17;;;;;;;25.93;24.10;;;;;;;;;;5056491;28;20461;-77
2022/09/26 06:43:44;;;;;;;25.37;23.43;;;;;;;;;;5056640;28;20453;-77
2022/09/26 06:46:13;;;;;;;26.80;24.90;;;;;;;;;;5056559;28;20421;-77
2022/09/26 06:48:40;;;;;;;26.00;24.10;;;;;;;;;;5056829;28;20770;-77
2022/09/26 06:51:12;;;;;;;28.40;26.07;;;;;;;;;;5056078;28;20987;-77
2022/09/26 06:53:40;;;;;;;26.90;25.00;;;;;;;;;;5056735;28;20466;-77
2022/09/26 06:56:07;;;;;;;27.77;25.60;;;;;;;;;;5056636;28;20454;-77
2022/09/26 06:58:34;;;;;;;26.60;24.57;;;;;;;;;;5056294;28;20454;-77
2022/09/26 07:01:02;;;;;;;27.10;25.00;;;;;;;;;;5055822;28;20950;-77
2022/09/26 07:03:31;;;;;;;25.80;23.80;;;;;;;;;;5056745;28;20805;-78
2022/09/26 07:05:59;;;;;;;27.27;24.93;;;;;;;;;;5056576;28;20425;-76
2022/09/26 07:08:27;;;;;;;26.50;24.60;;;;;;;;;;5056188;28;20442;-76
2022/09/26 07:10:54;;;;;;;27.10;25.17;;;;;;;;;;5055920;28;20996;-77
2022/09/26 07:13:21;;;;;;;25.43;23.83;;;;;;;;;;5056029;28;20466;-77
2022/09/26 07:15:49;;;;;;;25.60;23.70;;;;;;;;;;5055936;28;20953;-77
2022/09/26 07:18:17;;;;;;;22.17;20.80;;;;;;;;;;5056666;28;20454;-76
2022/09/26 07:20:46;;;;;;;24.97;23.37;;;;;;;;;;5055901;28;20454;-76
2022/09/26 07:23:15;;;;;;;24.43;22.73;;;;;;;;;;5055534;28;20600;-76
2022/09/26 07:25:45;;;;;;;25.07;23.17;;;;;;;;;;5056553;28;20481;-76
2022/09/26 07:28:12;;;;;;;25.80;24.00;;;;;;;;;;5055715;28;20935;-76
2022/09/26 07:30:39;;;;;;;25.90;23.93;;;;;;;;;;5055676;28;20988;-76
2022/09/26 07:33:07;;;;;;;25.13;23.43;;;;;;;;;;5055305;28;20474;-76
2022/09/26 07:35:36;;;;;;;25.50;23.60;;;;;;;;;;5056083;28;20461;-76
2022/09/26 07:38:05;;;;;;;24.83;22.83;;;;;;;;;;5055340;28;20463;-77
2022/09/26 07:40:32;;;;;;;25.50;23.30;;;;;;;;;;5055839;28;20429;-77
2022/09/26 07:43:00;;;;;;;23.47;21.63;;;;;;;;;;5055342;28;20478;-76
2022/09/26 07:50:58;;;;;;;24.70;22.90;;;;;;;;;;5054932;28;20600;-78
2022/09/26 07:53:27;;;;;;;23.73;22.13;;;;;;;;;;5055505;28;20482;-76
2022/09/26 07:56:09;;;;;;;24.50;22.70;;;;;;;;;;5055724;28;20805;-76
2022/09/26 07:58:38;;;;;;;22.87;21.33;;;;;;;;;;5055538;28;20488;-76
2022/09/26 08:01:05;;;;;;;25.07;22.90;;;;;;;;;;5055008;28;20525;-75
2022/09/26 08:03:33;;;;;;;23.73;21.57;;;;;;;;;;5055343;28;20470;-76
2022/09/26 08:06:01;;;;;;;21.83;20.50;;;;;;;;;;5054685;28;20950;-76
2022/09/26 08:08:30;;;;;;;22.97;21.57;;;;;;;;;;5055114;28;20885;-76
2022/09/26 08:10:58;;;;;;;22.73;20.87;;;;;;;;;;5054697;28;20486;-76
2022/09/26 08:13:25;;;;;;;23.20;21.77;;;;;;;;;;5054765;28;20475;-76
2022/09/26 08:15:53;;;;;;;22.47;21.07;;;;;;;;;;5054329;28;21013;-76
2022/09/26 08:18:21;;;;;;;21.57;20.27;;;;;;;;;;5054901;28;20869;-77
2022/09/26 08:20:48;;;;;;;22.20;20.73;;;;;;;;;;5055895;28;20794;-77
2022/09/26 08:23:16;;;;;;;21.63;20.33;;;;;;;;;;5054696;28;20825;-81
2022/09/26 08:25:45;;;;;;;21.90;20.60;;;;;;;;;;5054825;28;20454;-76
2022/09/26 08:28:13;;;;;;;20.37;18.93;;;;;;;;;;5054238;28;20465;-77
2022/09/26 08:30:40;;;;;;;21.80;20.53;;;;;;;;;;5054866;28;20486;-76
2022/09/26 08:33:08;;;;;;;23.67;21.97;;;;;;;;;;5054286;28;20476;-76
2022/09/26 08:35:37;;;;;;;23.53;21.70;;;;;;;;;;5054716;28;20432;-76
2022/09/26 08:38:05;;;;;;;22.40;21.00;;;;;;;;;;5054491;28;20550;-76
2022/09/26 08:40:35;;;;;;;19.80;18.60;;;;;;;;;;5054413;28;20479;-77
2022/09/26 08:43:07;;;;;;;21.90;20.20;;;;;;;;;;5055482;28;20446;-81
2022/09/26 08:48:33;;;;;;;20.07;18.93;;;;;;;;;;5054638;28;20427;-76
2022/09/26 08:51:05;;;;;;;22.10;20.43;;;;;;;;;;5053418;28;20466;-76
2022/09/26 08:53:38;;;;;;;22.00;20.70;;;;;;;;;;5054393;28;20446;-77
2022/09/26 08:56:11;;;;;;;22.60;21.13;;;;;;;;;;5053698;28;20473;-76
2022/09/26 08:58:41;;;;;;;21.93;20.60;;;;;;;;;;5054447;28;20438;-76
2022/09/26 09:01:13;;;;;;;23.30;21.40;;;;;;;;;;5053784;28;20506;-76
2022/09/26 09:03:44;;;;;;;22.80;21.50;;;;;;;;;;5054524;28;20535;-76
2022/09/26 09:06:12;;;;;;;22.23;20.93;;;;;;;;;;5053786;28;20506;-76
2022/09/26 09:08:41;;;;;;;23.03;21.60;;;;;;;;;;5053384;28;20420;-76
2022/09/26 09:11:14;;;;;;;22.73;21.23;;;;;;;;;;5053502;28;20474;-77
2022/09/26 09:13:52;;;;;;;22.63;21.23;;;;;;;;;;5053784;28;20825;-76
2022/09/26 09:16:28;;;;;;;22.77;21.47;;;;;;;;;;5054024;28;20446;-76
2022/09/26 09:18:58;;;;;;;22.70;21.10;;;;;;;;;;5054580;28;20442;-76
2022/09/26 09:21:34;;;;;;;21.40;20.10;;;;;;;;;;5053337;28;20455;-76
2022/09/26 09:24:13;;;;;;;22.93;21.43;;;;;;;;;;5053919;28;20463;-76
2022/09/26 09:26:46;;;;;;;21.83;20.53;;;;;;;;;;5053928;28;20424;-76
2022/09/26 09:29:21;;;;;;;20.20;19.00;;;;;;;;;;5053181;28;20890;-76
2022/09/26 09:31:49;;;;;;;22.83;21.50;;;;;;;;;;5053075;28;20485;-84
2022/09/26 09:34:22;;;;;;;21.00;19.67;;;;;;;;;;5054690;28;20446;-78
2022/09/26 09:36:50;;;;;;;22.00;20.70;;;;;;;;;;5053369;28;20443;-78
2022/09/26 09:39:24;;;;;;;21.53;20.23;;;;;;;;;;5053810;28;20505;-78
2022/09/26 09:41:53;;;;;;;21.70;20.40;;;;;;;;;;5052919;28;20434;-79
2022/09/26 09:44:28;;;;;;;21.43;20.13;;;;;;;;;;5053812;28;20479;-82
2022/09/26 09:46:55;;;;;;;20.90;19.73;;;;;;;;;;5053422;28;20412;-79
2022/09/26 09:49:24;;;;;;;22.40;20.90;;;;;;;;;;5053336;28;20432;-78
2022/09/26 09:51:58;;;;;;;21.47;19.73;;;;;;;;;;5052600;28;20464;-78
2022/09/26 09:54:32;;;;;;;20.80;19.57;;;;;;;;;;5053031;28;20462;-77
2022/09/26 09:57:11;;;;;;;20.73;19.37;;;;;;;;;;5053643;28;20434;-78
2022/09/26 09:59:56;;;;;;;20.80;19.50;;;;;;;;;;5053744;28;20446;-78
2022/09/26 10:02:29;;;;;;;19.93;18.83;;;;;;;;;;5056469;28;20477;-77
2022/09/26 10:05:00;;;;;;;19.57;18.47;;;;;;;;;;5056925;28;20473;-77
2022/09/26 10:07:27;;;;;;;20.63;19.37;;;;;;;;;;5057330;28;20435;-77
2022/09/26 10:09:55;;;;;;;20.33;19.23;;;;;;;;;;5057303;28;20454;-77
2022/09/26 10:12:29;;;;;;;20.00;18.77;;;;;;;;;;5056872;28;20466;-77
2022/09/26 10:15:01;;;;;;;19.20;18.10;;;;;;;;;;5060358;28;20481;-78
2022/09/26 10:17:28;;;;;;;20.30;19.00;;;;;;;;;;5056882;28;20557;-77
2022/09/26 10:19:55;;;;;;;19.90;18.70;;;;;;;;;;5057324;28;20478;-77
2022/09/26 10:22:28;;;;;;;19.20;18.13;;;;;;;;;;5056808;28;20516;-77
2022/09/26 10:25:00;;;;;;;20.47;18.60;;;;;;;;;;5057363;28;20529;-78
2022/09/26 10:27:34;;;;;;;19.90;18.50;;;;;;;;;;5058184;28;20871;-78
2022/09/26 10:30:05;;;;;;;18.93;17.93;;;;;;;;;;5056583;28;20409;-78
2022/09/26 10:32:44;;;;;;;19.40;18.00;;;;;;;;;;5056459;28;20471;-78
2022/09/26 10:35:17;;;;;;;20.77;19.30;;;;;;;;;;5057540;28;20829;-78
2022/09/26 10:37:47;;;;;;;18.90;17.80;;;;;;;;;;5057236;28;20467;-78
2022/09/26 10:43:20;;;;;;;19.97;18.77;;;;;;;;;;5061942;28;20606;-82
2022/09/26 10:45:52;;;;;;;20.40;19.20;;;;;;;;;;5056773;28;20472;-77
2022/09/26 10:48:20;;;;;;;21.13;19.60;;;;;;;;;;5057003;28;20470;-78
2022/09/26 10:50:50;;;;;;;19.40;18.40;;;;;;;;;;5056112;28;20581;-79
2022/09/26 10:53:21;;;;;;;19.43;18.33;;;;;;;;;;5056266;28;20475;-77
2022/09/26 10:55:52;;;;;;;21.03;19.43;;;;;;;;;;5056892;28;20439;-77
2022/09/26 10:58:22;;;;;;;20.70;19.13;;;;;;;;;;5056625;28;20417;-78
2022/09/26 11:00:52;;;;;;;20.63;19.27;;;;;;;;;;5056472;28;20917;-83
2022/09/26 11:03:22;;;;;;;20.30;19.10;;;;;;;;;;5074412;28;20504;-86
2022/09/26 11:05:59;;;;;;;19.33;18.37;;;;;;;;;;5074128;28;20437;-79
2022/09/26 11:08:28;;;;;;;21.20;19.33;;;;;;;;;;5077719;28;20441;-78
2022/09/26 11:10:56;;;;;;;20.27;19.17;;;;;;;;;;5063795;28;20478;-78
2022/09/26 11:13:24;;;;;;;19.70;18.50;;;;;;;;;;5055607;28;20528;-79
2022/09/26 11:15:59;;;;;;;18.33;17.30;;;;;;;;;;5058801;28;20442;-78
2022/09/26 11:18:31;;;;;;;20.00;18.70;;;;;;;;;;5057095;28;20442;-79
2022/09/26 11:21:05;;;;;;;20.63;19.57;;;;;;;;;;5057671;28;20426;-87
2022/09/26 11:23:38;;;;;;;21.40;20.20;;;;;;;;;;5062599;28;20802;-88
2022/09/26 11:26:10;;;;;;;20.57;19.50;;;;;;;;;;5062280;28;20431;-82
2022/09/26 11:28:40;;;;;;;22.60;21.20;;;;;;;;;;5061997;28;20942;-86
2022/09/26 11:31:16;;;;;;;20.60;19.40;;;;;;;;;;5061668;28;20493;-90
2022/09/26 11:33:44;;;;;;;20.30;19.20;;;;;;;;;;5061001;28;20456;-81
2022/09/26 11:36:21;;;;;;;21.50;20.20;;;;;;;;;;5059326;28;20922;-79
2022/09/26 11:38:51;;;;;;;22.10;20.60;;;;;;;;;;5057317;28;20434;-78
2022/09/26 11:41:39;;;;;;;20.47;19.27;;;;;;;;;;5055850;28;20417;-78
2022/09/26 11:44:24;;;;;;;20.00;19.00;;;;;;;;;;5058189;28;20487;-78
2022/09/26 11:47:01;;;;;;;21.40;20.10;;;;;;;;;;5026988;28;20417;-77
2022/09/26 11:49:33;;;;;;;21.20;19.80;;;;;;;;;;5055671;28;20966;-78
2022/09/26 11:52:07;;;;;;;20.47;19.37;;;;;;;;;;5055477;28;20478;-78
2022/09/26 11:54:44;;;;;;;20.80;19.40;;;;;;;;;;5056128;28;20439;-77
2022/09/26 11:57:16;;;;;;;20.07;19.00;;;;;;;;;;5055809;28;20500;-78
2022/09/26 11:59:55;;;;;;;20.87;19.13;;;;;;;;;;5055447;28;20444;-78
2022/09/26 12:02:40;;;;;;;20.80;19.60;;;;;;;;;;5055478;28;20444;-78
2022/09/26 12:05:24;;;;;;;20.57;19.57;;;;;;;;;;5055672;28;20440;-77
2022/09/26 12:07:57;;;;;;;20.33;19.13;;;;;;;;;;5056744;28;20434;-78
2022/09/26 12:10:30;;;;;;;21.27;20.13;;;;;;;;;;5056160;28;20487;-78
2022/09/26 12:13:07;;;;;;;20.40;19.20;;;;;;;;;;5056041;28;20530;-78
2022/09/26 12:15:37;;;;;;;21.10;19.90;;;;;;;;;;5056035;28;20481;-77
2022/09/26 12:18:12;;;;;;;20.27;18.97;;;;;;;;;;5056803;28;20492;-78
2022/09/26 12:20:45;;;;;;;19.90;18.80;;;;;;;;;;5056500;28;20482;-78
2022/09/26 12:23:16;;;;;;;20.70;19.60;;;;;;;;;;5056382;28;20471;-86
2022/09/26 12:25:54;;;;;;;19.50;18.50;;;;;;;;;;5059868;28;20471;-81
2022/09/26 12:28:33;;;;;;;20.23;19.17;;;;;;;;;;5063312;28;20807;-81
2022/09/26 12:31:07;;;;;;;20.93;19.83;;;;;;;;;;5060259;28;20470;-84
2022/09/26 12:34:01;;;;;;;20.17;19.17;;;;;;;;;;5059835;28;20503;-82
2022/09/26 12:36:39;;;;;;;19.97;18.77;;;;;;;;;;5061115;28;20435;-81
2022/09/26 12:39:13;;;;;;;20.30;18.90;;;;;;;;;;5060724;28;20450;-81
2022/09/26 12:41:50;;;;;;;19.93;18.90;;;;;;;;;;5057462;28;20456;-86
2022/09/26 12:44:39;;;;;;;20.00;18.80;;;;;;;;;;5057864;28;20485;-86
2022/09/26 12:47:31;;;;;;;19.10;17.90;;;;;;;;;;5057599;28;20398;-79
2022/09/26 12:50:15;;;;;;;19.80;18.60;;;;;;;;;;5048843;28;20474;-80
2022/09/26 12:52:56;;;;;;;19.17;17.97;;;;;;;;;;5058582;28;20975;-80
2022/09/26 12:55:28;;;;;;;18.00;17.10;;;;;;;;;;5059717;28;20808;-80
2022/09/26 12:58:04;;;;;;;18.70;17.80;;;;;;;;;;5058888;28;20413;-80
2022/09/26 13:00:38;;;;;;;19.00;17.90;;;;;;;;;;5059664;28;20788;-80
2022/09/26 13:03:18;;;;;;;19.43;18.43;;;;;;;;;;5059014;28;20779;-81
2022/09/26 13:05:54;;;;;;;18.80;17.60;;;;;;;;;;5059833;28;20769;-80
2022/09/26 13:08:29;;;;;;;18.33;17.43;;;;;;;;;;5058939;28;20420;-86
2022/09/26 13:11:02;;;;;;;18.20;17.40;;;;;;;;;;5059710;28;20432;-87
2022/09/26 13:13:39;;;;;;;18.03;17.13;;;;;;;;;;5058920;28;20837;-86
2022/09/26 13:16:15;;;;;;;19.13;18.03;;;;;;;;;;5058423;28;20409;-80
2022/09/26 13:18:45;;;;;;;18.77;17.83;;;;;;;;;;5057391;28;20503;-83
2022/09/26 13:21:14;;;;;;;18.03;17.13;;;;;;;;;;5057611;28;20425;-79
2022/09/26 13:23:45;;;;;;;18.33;17.33;;;;;;;;;;5057315;28;20471;-79
2022/09/26 13:26:15;;;;;;;18.33;17.33;;;;;;;;;;5057208;28;20481;-79
2022/09/26 13:28:46;;;;;;;17.83;16.83;;;;;;;;;;5056849;28;20470;-79
2022/09/26 13:31:15;;;;;;;19.13;18.03;;;;;;;;;;5057064;28;20555;-79
2022/09/26 13:33:46;;;;;;;18.47;17.57;;;;;;;;;;5058077;28;20480;-80
2022/09/26 13:36:14;;;;;;;17.47;16.67;;;;;;;;;;5056938;28;20478;-79
2022/09/26 13:38:50;;;;;;;17.80;16.90;;;;;;;;;;5056979;28;20417;-79
2022/09/26 13:41:32;;;;;;;18.40;17.50;;;;;;;;;;5056632;28;20438;-79
2022/09/26 13:44:05;;;;;;;18.77;17.77;;;;;;;;;;5057269;28;20544;-79
2022/09/26 13:46:39;;;;;;;18.97;17.97;;;;;;;;;;5058135;28;20453;-79
2022/09/26 13:49:21;;;;;;;18.57;17.67;;;;;;;;;;5058022;28;20475;-80
2022/09/26 13:51:53;;;;;;;19.07;18.03;;;;;;;;;;5057141;28;20442;-80
2022/09/26 13:54:25;;;;;;;18.27;17.30;;;;;;;;;;5057013;28;20490;-79
2022/09/26 13:56:54;;;;;;;19.20;18.00;;;;;;;;;;5056871;28;20448;-80
2022/09/26 13:59:26;;;;;;;18.80;17.90;;;;;;;;;;5056656;28;20417;-80
2022/09/26 14:02:14;;;;;;;19.33;18.10;;;;;;;;;;5056773;28;20446;-79
2022/09/26 14:04:42;;;;;;;19.40;18.40;;;;;;;;;;5056400;28;20805;-77
2022/09/26 14:10:13;;;;;;;19.70;18.70;;;;;;;;;;5053688;28;20406;-77
2022/09/26 14:12:55;;;;;;;19.00;17.60;;;;;;;;;;5052793;28;20498;-77
2022/09/26 14:15:24;;;;;;;18.43;17.53;;;;;;;;;;5055980;28;20453;-79
2022/09/26 14:18:02;;;;;;;19.70;18.60;;;;;;;;;;5058826;28;20428;-84
2022/09/26 14:20:32;;;;;;;17.80;16.90;;;;;;;;;;5054404;28;20409;-78
2022/09/26 14:23:02;;;;;;;18.70;17.60;;;;;;;;;;5053439;28;20463;-83
2022/09/26 14:25:47;;;;;;;18.93;17.90;;;;;;;;;;5060530;28;20443;-88
2022/09/26 14:28:22;;;;;;;17.43;16.63;;;;;;;;;;5062476;28;20454;-82
2022/09/26 14:31:09;;;;;;;18.67;17.67;;;;;;;;;;5063630;28;20434;-82
2022/09/26 14:33:37;;;;;;;18.70;17.40;;;;;;;;;;5063612;28;20517;-83
2022/09/26 14:36:25;;;;;;;18.90;17.60;;;;;;;;;;5064229;28;20434;-84
2022/09/26 14:38:53;;;;;;;18.33;17.30;;;;;;;;;;5063116;28;20417;-85
2022/09/26 14:41:22;;;;;;;18.40;17.40;;;;;;;;;;5060350;28;20466;-84
2022/09/26 14:43:52;;;;;;;18.30;17.40;;;;;;;;;;5060821;28;20443;-85
2022/09/26 14:46:23;;;;;;;18.90;17.90;;;;;;;;;;5059478;28;20413;-84
2022/09/26 14:48:57;;;;;;;17.53;16.63;;;;;;;;;;5060595;28;20462;-85
2022/09/26 14:51:27;;;;;;;18.70;17.57;;;;;;;;;;5065047;28;20435;-84
2022/09/26 14:53:57;;;;;;;19.50;18.27;;;;;;;;;;5066267;28;20478;-81
2022/09/26 14:56:32;;;;;;;18.67;17.67;;;;;;;;;;5066804;28;20798;-84
2022/09/26 15:01:54;;;;;;;22.10;20.80;;;;;;;;;;5111890;27;20531;-78